Time;durP1;ratioP1;P1;durP2;ratioP2;P2;SDS_P1;SDS_P2;PMS_P1;PMS_P2;Temp;Humidity;BMP_temperature;BMP_pressure;BME280_temperature;BME280_humidity;BME280_pressure;Samples;Min_cycle;Max_cycle;Signal;HPM_P1;HPM_P2
2023/10/01 00:00:20;;;;;;;10.90;10.40;;;;;;;;;;5094991;28;20891;-70
2023/10/01 00:02:48;;;;;;;11.27;10.77;;;;;;;;;;5090706;28;20488;-70
2023/10/01 00:05:13;;;;;;;11.27;10.77;;;;;;;;;;5103560;27;20059;-70
2023/10/01 00:07:39;;;;;;;11.13;10.63;;;;;;;;;;5108901;27;20035;-69
2023/10/01 00:10:10;;;;;;;11.20;10.70;;;;;;;;;;5105023;27;20012;-69
2023/10/01 00:12:36;;;;;;;11.23;10.73;;;;;;;;;;5102421;28;20128;-70
2023/10/01 00:15:02;;;;;;;10.57;10.07;;;;;;;;;;5103200;27;20016;-69
2023/10/01 00:17:27;;;;;;;11.23;10.73;;;;;;;;;;5105838;28;20031;-70
2023/10/01 00:19:53;;;;;;;11.10;10.60;;;;;;;;;;5082005;28;20020;-70
2023/10/01 00:22:18;;;;;;;11.23;10.73;;;;;;;;;;5108398;27;20115;-70
2023/10/01 00:24:44;;;;;;;11.00;10.50;;;;;;;;;;5101661;28;20076;-70
2023/10/01 00:27:09;;;;;;;11.00;10.50;;;;;;;;;;5108329;27;20023;-70
2023/10/01 00:29:34;;;;;;;11.10;10.60;;;;;;;;;;5102581;28;20056;-70
2023/10/01 00:32:00;;;;;;;10.80;10.30;;;;;;;;;;5110287;27;20408;-69
2023/10/01 00:34:25;;;;;;;11.20;10.70;;;;;;;;;;5105919;28;20027;-70
2023/10/01 00:36:52;;;;;;;10.77;10.27;;;;;;;;;;5110275;28;20455;-70
2023/10/01 00:39:18;;;;;;;11.15;10.65;;;;;;;;;;5108714;27;20095;-70
2023/10/01 00:41:44;;;;;;;10.90;10.40;;;;;;;;;;5085415;28;20118;-69
2023/10/01 00:44:09;;;;;;;10.90;10.40;;;;;;;;;;5102351;27;20487;-70
2023/10/01 00:46:36;;;;;;;10.48;9.98;;;;;;;;;;5104682;27;20031;-69
2023/10/01 00:49:02;;;;;;;10.82;10.32;;;;;;;;;;5107899;27;20038;-70
2023/10/01 00:51:31;;;;;;;11.00;10.50;;;;;;;;;;5091868;28;20020;-70
2023/10/01 00:53:56;;;;;;;11.77;11.20;;;;;;;;;;5110042;28;20102;-71
2023/10/01 00:56:22;;;;;;;11.45;10.95;;;;;;;;;;5109086;27;20066;-70
2023/10/01 00:58:48;;;;;;;11.27;10.77;;;;;;;;;;5090411;28;20027;-70
2023/10/01 01:01:16;;;;;;;11.27;10.68;;;;;;;;;;5104092;28;20012;-71
2023/10/01 01:03:43;;;;;;;10.90;10.40;;;;;;;;;;5102033;27;20024;-70
2023/10/01 01:06:17;;;;;;;10.82;10.32;;;;;;;;;;5103887;28;20075;-70
2023/10/01 01:08:46;;;;;;;11.05;10.55;;;;;;;;;;5106151;28;20015;-70
2023/10/01 01:11:15;;;;;;;10.95;10.45;;;;;;;;;;5089318;27;20121;-70
2023/10/01 01:13:40;;;;;;;11.00;10.50;;;;;;;;;;5086192;28;20114;-70
2023/10/01 01:16:06;;;;;;;10.82;10.32;;;;;;;;;;5099950;27;20020;-70
2023/10/01 01:18:34;;;;;;;11.15;10.65;;;;;;;;;;5079044;28;20483;-70
2023/10/01 01:21:05;;;;;;;11.00;10.50;;;;;;;;;;5087264;28;20030;-70
2023/10/01 01:23:31;;;;;;;10.90;10.40;;;;;;;;;;5103683;27;20012;-69
2023/10/01 01:25:56;;;;;;;10.80;10.30;;;;;;;;;;5105110;27;20077;-69
2023/10/01 01:28:27;;;;;;;11.20;10.70;;;;;;;;;;5103989;28;20026;-70
2023/10/01 01:30:58;;;;;;;10.60;10.10;;;;;;;;;;5093687;28;20013;-70
2023/10/01 01:33:31;;;;;;;10.95;10.45;;;;;;;;;;5105016;27;20030;-70
2023/10/01 01:35:57;;;;;;;11.27;10.77;;;;;;;;;;5087870;28;20015;-69
2023/10/01 01:38:23;;;;;;;10.98;10.48;;;;;;;;;;5105930;28;20509;-71
2023/10/01 01:40:50;;;;;;;10.60;10.10;;;;;;;;;;5088914;28;20030;-70
2023/10/01 01:43:16;;;;;;;11.10;10.60;;;;;;;;;;5109388;28;20026;-70
2023/10/01 01:45:46;;;;;;;11.10;10.60;;;;;;;;;;5102606;28;20063;-71
2023/10/01 01:51:00;;;;;;;10.88;10.38;;;;;;;;;;5108652;28;20034;-70
2023/10/01 01:53:35;;;;;;;10.82;10.32;;;;;;;;;;5084131;28;20432;-70
2023/10/01 01:56:16;;;;;;;10.98;10.48;;;;;;;;;;5101469;28;20019;-70
2023/10/01 01:58:43;;;;;;;10.57;10.07;;;;;;;;;;5093102;28;20039;-70
2023/10/01 02:01:17;;;;;;;10.85;10.35;;;;;;;;;;5106899;28;20406;-70
2023/10/01 02:03:46;;;;;;;11.27;10.77;;;;;;;;;;5098437;28;20174;-70
2023/10/01 02:06:13;;;;;;;11.07;10.57;;;;;;;;;;5103552;28;20078;-70
2023/10/01 02:08:49;;;;;;;11.23;10.73;;;;;;;;;;5107908;28;20023;-70
2023/10/01 02:11:15;;;;;;;10.77;10.27;;;;;;;;;;5108588;28;20019;-69
2023/10/01 02:13:41;;;;;;;11.10;10.60;;;;;;;;;;5110114;28;20024;-71
2023/10/01 02:18:56;;;;;;;11.80;11.23;;;;;;;;;;5106269;28;20065;-69
2023/10/01 02:21:42;;;;;;;11.25;10.75;;;;;;;;;;5103840;28;20501;-71
2023/10/01 02:24:07;;;;;;;11.32;10.82;;;;;;;;;;5105077;28;20119;-71
2023/10/01 02:26:34;;;;;;;10.85;10.35;;;;;;;;;;5099937;28;20542;-71
2023/10/01 02:29:02;;;;;;;10.80;10.30;;;;;;;;;;5104382;28;20463;-71
2023/10/01 02:31:27;;;;;;;11.20;10.70;;;;;;;;;;5101947;28;20531;-72
2023/10/01 02:33:56;;;;;;;11.50;11.00;;;;;;;;;;5104695;28;20058;-71
2023/10/01 02:36:23;;;;;;;10.90;10.40;;;;;;;;;;5108753;28;20027;-69
2023/10/01 02:38:53;;;;;;;11.05;10.55;;;;;;;;;;5091340;28;20054;-71
2023/10/01 02:41:25;;;;;;;11.27;10.77;;;;;;;;;;5100460;28;20023;-71
2023/10/01 02:43:52;;;;;;;11.02;10.52;;;;;;;;;;5102373;28;20020;-70
2023/10/01 02:46:26;;;;;;;11.25;10.75;;;;;;;;;;5088945;28;20078;-71
2023/10/01 02:48:54;;;;;;;11.35;10.85;;;;;;;;;;5095258;28;20020;-69
2023/10/01 02:51:32;;;;;;;11.35;10.85;;;;;;;;;;5109714;28;20032;-71
2023/10/01 02:54:08;;;;;;;11.23;10.73;;;;;;;;;;5090545;27;20027;-71
2023/10/01 02:56:37;;;;;;;10.70;10.20;;;;;;;;;;5103014;28;20510;-70
2023/10/01 02:59:12;;;;;;;10.98;10.48;;;;;;;;;;5102400;28;20032;-71
2023/10/01 03:01:38;;;;;;;10.80;10.30;;;;;;;;;;5105333;28;20032;-71
2023/10/01 03:04:10;;;;;;;11.23;10.73;;;;;;;;;;5107444;27;20497;-69
2023/10/01 03:06:36;;;;;;;10.80;10.30;;;;;;;;;;5079590;28;20034;-70
2023/10/01 03:09:04;;;;;;;11.30;10.80;;;;;;;;;;5109525;27;20499;-70
2023/10/01 03:11:34;;;;;;;10.77;10.27;;;;;;;;;;5107327;28;20042;-70
2023/10/01 03:14:04;;;;;;;10.90;10.40;;;;;;;;;;5092002;28;20083;-71
2023/10/01 03:19:18;;;;;;;10.85;10.35;;;;;;;;;;5097194;28;20036;-70
2023/10/01 03:24:29;;;;;;;10.70;10.20;;;;;;;;;;5091165;27;20529;-70
2023/10/01 03:26:57;;;;;;;10.65;10.15;;;;;;;;;;5110931;27;20066;-70
2023/10/01 03:29:34;;;;;;;10.40;9.90;;;;;;;;;;5113257;27;20015;-70
2023/10/01 03:32:26;;;;;;;10.95;10.45;;;;;;;;;;5092204;27;20051;-70
2023/10/01 03:34:46;;;;;;;11.15;10.65;;;;;;;;;;5107606;27;20020;-71
2023/10/01 03:37:12;;;;;;;10.98;10.48;;;;;;;;;;5107208;27;20019;-70
2023/10/01 03:39:37;;;;;;;10.73;10.23;;;;;;;;;;5110073;28;20096;-71
2023/10/01 03:42:14;;;;;;;10.93;10.43;;;;;;;;;;5090840;28;20490;-71
2023/10/01 03:47:23;;;;;;;10.40;9.90;;;;;;;;;;5110216;27;20111;-70
2023/10/01 03:49:53;;;;;;;11.23;10.73;;;;;;;;;;5084738;27;20114;-70
2023/10/01 03:52:21;;;;;;;11.02;10.52;;;;;;;;;;5105675;27;20020;-71
2023/10/01 03:54:54;;;;;;;10.73;10.23;;;;;;;;;;5089860;28;20448;-70
2023/10/01 03:57:19;;;;;;;11.07;10.57;;;;;;;;;;5102883;28;20744;-72
2023/10/01 03:59:51;;;;;;;10.80;10.30;;;;;;;;;;5107019;27;20016;-71
2023/10/01 04:05:03;;;;;;;10.48;9.98;;;;;;;;;;5108175;27;20100;-70
2023/10/01 04:07:42;;;;;;;10.60;10.10;;;;;;;;;;5100410;27;20039;-70
2023/10/01 04:10:13;;;;;;;12.02;11.45;;;;;;;;;;5103649;28;20058;-68
2023/10/01 04:12:44;;;;;;;10.75;10.25;;;;;;;;;;5095256;28;20021;-68
2023/10/01 04:15:27;;;;;;;10.80;10.30;;;;;;;;;;5099101;28;20071;-67
2023/10/01 04:20:39;;;;;;;11.02;10.52;;;;;;;;;;5100366;28;20019;-65
2023/10/01 04:23:04;;;;;;;11.20;10.70;;;;;;;;;;5101328;28;20495;-66
2023/10/01 04:25:36;;;;;;;11.70;11.20;;;;;;;;;;5102042;27;20071;-66
2023/10/01 04:28:05;;;;;;;11.20;10.70;;;;;;;;;;5100088;28;20080;-66
2023/10/01 04:30:34;;;;;;;11.60;11.10;;;;;;;;;;5099700;28;20038;-66
2023/10/01 04:33:16;;;;;;;11.27;10.77;;;;;;;;;;5094688;28;20482;-65
2023/10/01 04:35:49;;;;;;;11.10;10.60;;;;;;;;;;5104846;28;20032;-65
2023/10/01 04:38:15;;;;;;;11.25;10.75;;;;;;;;;;5100567;28;20258;-64
2023/10/01 04:40:43;;;;;;;11.02;10.52;;;;;;;;;;5103514;27;20019;-65
2023/10/01 04:43:10;;;;;;;11.07;10.57;;;;;;;;;;5100661;27;20027;-65
2023/10/01 04:45:40;;;;;;;11.30;10.80;;;;;;;;;;5103148;27;20121;-64
2023/10/01 04:51:09;;;;;;;11.00;10.50;;;;;;;;;;5092283;27;20384;-67
2023/10/01 04:53:35;;;;;;;10.98;10.48;;;;;;;;;;5099472;27;20020;-64
2023/10/01 04:56:06;;;;;;;11.10;10.60;;;;;;;;;;5095471;28;20011;-66
2023/10/01 04:58:38;;;;;;;11.20;10.70;;;;;;;;;;5099897;27;20012;-65
2023/10/01 05:01:07;;;;;;;11.05;10.55;;;;;;;;;;5100713;28;20023;-65
2023/10/01 05:03:38;;;;;;;11.23;10.73;;;;;;;;;;5100731;28;20020;-66
2023/10/01 05:06:08;;;;;;;11.70;11.20;;;;;;;;;;5100472;27;20491;-65
2023/10/01 05:08:38;;;;;;;11.32;10.82;;;;;;;;;;5095904;28;20482;-65
2023/10/01 05:11:04;;;;;;;11.38;10.88;;;;;;;;;;5098805;28;20070;-65
2023/10/01 05:13:31;;;;;;;11.35;10.85;;;;;;;;;;5104335;28;20024;-68
2023/10/01 05:15:56;;;;;;;11.77;11.27;;;;;;;;;;5102589;27;20031;-65
2023/10/01 05:18:22;;;;;;;11.50;11.00;;;;;;;;;;5099880;27;20015;-66
2023/10/01 05:20:48;;;;;;;11.27;10.77;;;;;;;;;;5104622;27;20039;-65
2023/10/01 05:23:14;;;;;;;11.73;11.23;;;;;;;;;;5101718;27;20031;-64
2023/10/01 05:25:45;;;;;;;11.43;10.93;;;;;;;;;;5107514;28;20538;-66
2023/10/01 05:28:23;;;;;;;11.63;11.13;;;;;;;;;;5099645;28;20035;-66
2023/10/01 05:30:56;;;;;;;11.60;11.10;;;;;;;;;;5098443;28;20089;-67
2023/10/01 05:33:24;;;;;;;11.27;10.77;;;;;;;;;;5100151;28;20027;-66
2023/10/01 05:35:53;;;;;;;12.40;11.80;;;;;;;;;;5107361;28;20035;-65
2023/10/01 05:38:19;;;;;;;11.60;11.10;;;;;;;;;;5105086;28;20019;-65
2023/10/01 05:40:44;;;;;;;11.70;11.20;;;;;;;;;;5101812;28;20032;-64
2023/10/01 05:43:13;;;;;;;11.50;11.00;;;;;;;;;;5099770;28;20039;-66
2023/10/01 05:45:44;;;;;;;11.90;11.40;;;;;;;;;;5096069;28;20028;-65
2023/10/01 05:48:10;;;;;;;11.27;10.77;;;;;;;;;;5104200;28;20026;-65
2023/10/01 05:50:39;;;;;;;11.40;10.90;;;;;;;;;;5102874;28;20035;-66
2023/10/01 05:53:04;;;;;;;12.38;11.77;;;;;;;;;;5083782;28;20471;-66
2023/10/01 05:55:30;;;;;;;11.88;11.38;;;;;;;;;;5098163;28;20065;-66
2023/10/01 05:58:12;;;;;;;11.07;10.57;;;;;;;;;;5085713;28;20503;-65
2023/10/01 06:00:45;;;;;;;12.38;11.77;;;;;;;;;;5102395;28;20102;-65
2023/10/01 06:03:11;;;;;;;12.10;11.57;;;;;;;;;;5102365;28;20015;-65
2023/10/01 06:05:43;;;;;;;11.73;11.23;;;;;;;;;;5083347;28;20101;-66
2023/10/01 06:08:18;;;;;;;11.40;10.90;;;;;;;;;;5102002;28;20019;-65
2023/10/01 06:11:05;;;;;;;11.57;11.07;;;;;;;;;;5089483;28;20117;-68
2023/10/01 06:13:30;;;;;;;11.30;10.80;;;;;;;;;;5091860;28;20020;-67
2023/10/01 06:15:56;;;;;;;11.38;10.88;;;;;;;;;;5098576;28;21020;-68
2023/10/01 06:18:22;;;;;;;11.63;11.13;;;;;;;;;;5102580;28;20044;-67
2023/10/01 06:20:50;;;;;;;12.15;11.63;;;;;;;;;;5085104;28;20024;-67
2023/10/01 06:23:16;;;;;;;11.68;11.18;;;;;;;;;;5102334;28;20266;-67
2023/10/01 06:25:41;;;;;;;11.30;10.80;;;;;;;;;;5106030;28;20575;-67
2023/10/01 06:28:10;;;;;;;11.45;10.95;;;;;;;;;;5105752;28;20031;-72
2023/10/01 06:30:40;;;;;;;11.43;10.93;;;;;;;;;;5111535;28;20070;-66
2023/10/01 06:33:24;;;;;;;11.35;10.85;;;;;;;;;;5115117;28;20106;-71
2023/10/01 06:36:15;;;;;;;11.23;10.73;;;;;;;;;;5102641;28;20098;-67
2023/10/01 06:38:36;;;;;;;11.18;10.68;;;;;;;;;;5103947;27;20084;-67
2023/10/01 06:41:02;;;;;;;11.80;11.30;;;;;;;;;;5099655;27;20012;-67
2023/10/01 06:43:27;;;;;;;11.35;10.85;;;;;;;;;;5081714;28;20072;-67
2023/10/01 06:45:54;;;;;;;11.02;10.52;;;;;;;;;;5106584;28;20046;-65
2023/10/01 06:48:24;;;;;;;11.23;10.73;;;;;;;;;;5102251;27;20027;-66
2023/10/01 06:50:50;;;;;;;11.85;11.35;;;;;;;;;;5106317;28;20019;-65
2023/10/01 06:53:16;;;;;;;11.68;11.18;;;;;;;;;;5108186;28;20024;-66
2023/10/01 06:55:45;;;;;;;11.60;11.10;;;;;;;;;;5096089;27;20402;-66
2023/10/01 06:58:13;;;;;;;11.73;11.23;;;;;;;;;;5099985;28;20480;-66
2023/10/01 07:00:41;;;;;;;11.35;10.85;;;;;;;;;;5104945;27;20073;-65
2023/10/01 07:03:21;;;;;;;11.38;10.88;;;;;;;;;;5104869;27;20067;-66
2023/10/01 07:05:47;;;;;;;11.30;10.80;;;;;;;;;;5103863;27;20048;-67
2023/10/01 07:08:16;;;;;;;11.52;11.02;;;;;;;;;;5109506;27;20402;-66
2023/10/01 07:10:42;;;;;;;11.20;10.70;;;;;;;;;;5106584;27;20031;-66
2023/10/01 07:13:08;;;;;;;11.48;10.98;;;;;;;;;;5096558;28;20015;-66
2023/10/01 07:15:37;;;;;;;11.32;10.82;;;;;;;;;;5110379;28;20413;-65
2023/10/01 07:18:15;;;;;;;12.25;11.68;;;;;;;;;;5104487;27;20061;-67
2023/10/01 07:20:44;;;;;;;11.20;10.70;;;;;;;;;;5107651;27;20098;-66
2023/10/01 07:23:11;;;;;;;11.10;10.60;;;;;;;;;;5108677;28;20068;-67
2023/10/01 07:25:42;;;;;;;12.20;11.60;;;;;;;;;;5105715;27;20034;-68
2023/10/01 07:28:12;;;;;;;11.30;10.80;;;;;;;;;;5105476;27;20079;-66
2023/10/01 07:30:46;;;;;;;11.40;10.90;;;;;;;;;;5100240;27;20020;-67
2023/10/01 07:33:14;;;;;;;12.10;11.55;;;;;;;;;;5102343;28;20447;-66
2023/10/01 07:35:44;;;;;;;11.05;10.55;;;;;;;;;;5102629;27;20024;-66
2023/10/01 07:38:15;;;;;;;10.95;10.45;;;;;;;;;;5106480;28;20413;-66
2023/10/01 07:41:07;;;;;;;11.23;10.73;;;;;;;;;;5093600;28;20035;-66
2023/10/01 07:43:33;;;;;;;11.57;11.07;;;;;;;;;;5107730;28;20736;-66
2023/10/01 07:46:01;;;;;;;10.75;10.25;;;;;;;;;;5089056;27;20043;-66
2023/10/01 07:48:28;;;;;;;10.90;10.40;;;;;;;;;;5107864;27;20041;-66
2023/10/01 07:50:58;;;;;;;11.25;10.75;;;;;;;;;;5103596;27;20134;-66
2023/10/01 07:53:27;;;;;;;11.15;10.65;;;;;;;;;;5107170;28;20027;-66
2023/10/01 07:55:53;;;;;;;11.20;10.70;;;;;;;;;;5109577;27;20045;-66
2023/10/01 07:58:45;;;;;;;11.40;10.90;;;;;;;;;;5106000;28;20072;-66
2023/10/01 08:03:55;;;;;;;11.82;11.32;;;;;;;;;;5101963;27;20035;-66
2023/10/01 08:06:30;;;;;;;11.75;11.25;;;;;;;;;;5100952;28;21770;-67
2023/10/01 08:08:57;;;;;;;11.77;11.27;;;;;;;;;;5104764;27;20019;-66
2023/10/01 08:14:07;;;;;;;11.15;10.65;;;;;;;;;;5106808;28;20027;-66
2023/10/01 08:16:47;;;;;;;11.48;10.98;;;;;;;;;;5104841;28;20019;-67
2023/10/01 08:19:13;;;;;;;11.60;11.10;;;;;;;;;;5108085;27;20061;-67
2023/10/01 08:21:48;;;;;;;11.75;11.25;;;;;;;;;;5104078;28;20110;-66
2023/10/01 08:24:18;;;;;;;11.10;10.60;;;;;;;;;;5108247;27;20023;-66
2023/10/01 08:26:49;;;;;;;11.50;11.00;;;;;;;;;;5105756;28;20038;-66
2023/10/01 08:29:15;;;;;;;11.20;10.70;;;;;;;;;;5108806;27;20490;-66
2023/10/01 08:32:08;;;;;;;11.30;10.80;;;;;;;;;;5110747;27;20046;-66
2023/10/01 08:34:28;;;;;;;11.20;10.70;;;;;;;;;;5108318;27;20035;-67
2023/10/01 08:36:58;;;;;;;10.55;10.05;;;;;;;;;;5092937;27;20088;-65
2023/10/01 08:39:36;;;;;;;11.07;10.57;;;;;;;;;;5103460;27;20379;-67
2023/10/01 08:42:08;;;;;;;11.27;10.77;;;;;;;;;;5102850;27;20106;-66
2023/10/01 08:44:45;;;;;;;11.13;10.63;;;;;;;;;;5102541;28;20024;-66
2023/10/01 08:47:21;;;;;;;11.77;11.27;;;;;;;;;;5108054;27;20032;-65
2023/10/01 08:49:51;;;;;;;11.82;11.32;;;;;;;;;;5103115;28;20015;-67
2023/10/01 08:52:21;;;;;;;11.80;11.30;;;;;;;;;;5104584;27;20016;-67
2023/10/01 08:54:49;;;;;;;11.18;10.68;;;;;;;;;;5104141;28;20405;-67
2023/10/01 08:57:36;;;;;;;11.40;10.90;;;;;;;;;;5101881;28;20030;-67
2023/10/01 09:00:14;;;;;;;11.48;10.98;;;;;;;;;;5103021;27;20567;-67
2023/10/01 09:02:39;;;;;;;11.27;10.77;;;;;;;;;;5102382;28;20119;-66
2023/10/01 09:05:08;;;;;;;11.55;11.05;;;;;;;;;;5104038;27;20122;-66
2023/10/01 09:07:41;;;;;;;11.48;10.98;;;;;;;;;;5108422;27;20027;-66
2023/10/01 09:10:07;;;;;;;11.35;10.85;;;;;;;;;;5102043;28;20109;-67
2023/10/01 09:12:45;;;;;;;11.80;11.30;;;;;;;;;;5101616;28;20030;-66
2023/10/01 09:15:21;;;;;;;12.02;11.52;;;;;;;;;;5104795;28;20073;-66
2023/10/01 09:17:56;;;;;;;11.80;11.30;;;;;;;;;;5105422;28;20024;-66
2023/10/01 09:20:42;;;;;;;12.05;11.55;;;;;;;;;;5100058;28;20016;-66
2023/10/01 09:23:07;;;;;;;11.85;11.35;;;;;;;;;;5105296;28;20342;-65
2023/10/01 09:25:34;;;;;;;11.68;11.18;;;;;;;;;;5111087;27;20020;-66
2023/10/01 09:28:19;;;;;;;11.77;11.27;;;;;;;;;;5107827;27;20047;-67
2023/10/01 09:31:26;;;;;;;11.55;11.05;;;;;;;;;;5106534;28;20032;-66
2023/10/01 09:33:48;;;;;;;11.48;10.98;;;;;;;;;;5088577;28;20069;-67
2023/10/01 09:36:35;;;;;;;11.50;11.00;;;;;;;;;;5100341;28;20031;-67
2023/10/01 09:39:03;;;;;;;11.45;10.95;;;;;;;;;;5110905;28;20076;-66
2023/10/01 09:41:33;;;;;;;11.57;11.07;;;;;;;;;;5104354;28;20110;-66
2023/10/01 09:44:01;;;;;;;11.52;11.02;;;;;;;;;;5098646;28;20015;-67
2023/10/01 09:46:33;;;;;;;12.00;11.50;;;;;;;;;;5104563;28;20102;-67
2023/10/01 09:49:01;;;;;;;11.02;10.52;;;;;;;;;;5081230;28;20035;-67
2023/10/01 09:51:31;;;;;;;11.50;11.00;;;;;;;;;;5101035;28;20024;-67
2023/10/01 09:54:01;;;;;;;11.60;11.10;;;;;;;;;;5103456;28;20028;-66
2023/10/01 09:56:27;;;;;;;11.10;10.60;;;;;;;;;;5097053;28;20489;-66
2023/10/01 09:59:01;;;;;;;11.23;10.73;;;;;;;;;;5089630;27;20027;-66
2023/10/01 10:01:27;;;;;;;11.40;10.90;;;;;;;;;;5106498;27;20008;-67
2023/10/01 10:03:56;;;;;;;11.82;11.32;;;;;;;;;;5104958;27;20064;-67
2023/10/01 10:06:24;;;;;;;11.77;11.27;;;;;;;;;;5103212;27;20067;-68
2023/10/01 10:09:02;;;;;;;11.93;11.43;;;;;;;;;;5107834;28;20028;-66
2023/10/01 10:11:28;;;;;;;12.20;11.70;;;;;;;;;;5097231;28;20460;-66
2023/10/01 10:13:57;;;;;;;11.90;11.40;;;;;;;;;;5088921;28;20103;-66
2023/10/01 10:16:32;;;;;;;11.45;10.95;;;;;;;;;;5086060;28;20034;-66
2023/10/01 10:19:04;;;;;;;11.50;11.00;;;;;;;;;;5112118;28;20023;-66
2023/10/01 10:22:04;;;;;;;11.75;11.25;;;;;;;;;;5114442;27;20035;-68
2023/10/01 10:24:30;;;;;;;11.50;11.00;;;;;;;;;;5106234;27;20111;-66
2023/10/01 10:27:01;;;;;;;11.55;11.05;;;;;;;;;;5106316;27;20027;-66
2023/10/01 10:29:47;;;;;;;11.43;10.93;;;;;;;;;;5110658;28;20120;-67
2023/10/01 10:32:13;;;;;;;11.80;11.30;;;;;;;;;;5101320;28;20040;-67
2023/10/01 10:34:47;;;;;;;12.45;11.85;;;;;;;;;;5103039;28;20031;-66
2023/10/01 10:37:31;;;;;;;11.85;11.35;;;;;;;;;;5104747;27;20085;-67
2023/10/01 10:40:02;;;;;;;12.00;11.50;;;;;;;;;;5100162;27;20032;-68
2023/10/01 10:42:28;;;;;;;11.80;11.30;;;;;;;;;;5102299;27;20028;-67
2023/10/01 10:45:23;;;;;;;11.40;10.90;;;;;;;;;;5102321;27;20036;-67
2023/10/01 10:47:58;;;;;;;11.80;11.30;;;;;;;;;;5102629;27;20036;-67
2023/10/01 10:50:45;;;;;;;12.00;11.50;;;;;;;;;;5104364;28;20046;-68
2023/10/01 10:53:20;;;;;;;11.48;10.98;;;;;;;;;;5097120;27;20413;-68
2023/10/01 10:55:55;;;;;;;11.73;11.23;;;;;;;;;;5104601;28;20030;-68
2023/10/01 10:58:22;;;;;;;11.77;11.27;;;;;;;;;;5083490;28;20469;-66
2023/10/01 11:00:48;;;;;;;11.80;11.30;;;;;;;;;;5082361;27;20028;-66
2023/10/01 11:03:16;;;;;;;11.85;11.35;;;;;;;;;;5110196;28;20016;-67
2023/10/01 11:05:51;;;;;;;11.55;11.05;;;;;;;;;;5106258;28;20539;-67
2023/10/01 11:08:27;;;;;;;11.55;11.05;;;;;;;;;;5113700;28;20094;-68
2023/10/01 11:10:56;;;;;;;11.07;10.57;;;;;;;;;;5089630;28;20024;-67
2023/10/01 11:13:37;;;;;;;11.40;10.90;;;;;;;;;;5110174;27;20023;-68
2023/10/01 11:16:13;;;;;;;11.63;11.13;;;;;;;;;;5102239;27;20026;-67
2023/10/01 11:18:41;;;;;;;11.57;11.07;;;;;;;;;;5086898;28;20494;-68
2023/10/01 11:21:11;;;;;;;11.30;10.80;;;;;;;;;;5107316;27;20443;-68
2023/10/01 11:23:37;;;;;;;11.60;11.10;;;;;;;;;;5119869;27;20031;-67
2023/10/01 11:26:26;;;;;;;11.60;11.10;;;;;;;;;;5111128;27;20475;-68
2023/10/01 11:28:50;;;;;;;11.70;11.20;;;;;;;;;;5105185;27;20038;-67
2023/10/01 11:31:25;;;;;;;11.57;11.07;;;;;;;;;;5102836;28;20047;-67
2023/10/01 11:34:21;;;;;;;11.80;11.30;;;;;;;;;;5105958;27;20028;-67
2023/10/01 11:36:52;;;;;;;11.40;10.90;;;;;;;;;;5101201;28;20386;-67
2023/10/01 11:39:38;;;;;;;11.27;10.77;;;;;;;;;;5103670;27;20028;-67
2023/10/01 11:42:19;;;;;;;11.07;10.57;;;;;;;;;;5108925;27;20011;-68
2023/10/01 11:44:52;;;;;;;11.63;11.13;;;;;;;;;;5106845;27;20161;-69
2023/10/01 11:47:31;;;;;;;11.37;10.87;;;;;;;;;;5103411;27;20376;-67
2023/10/01 11:50:07;;;;;;;10.82;10.32;;;;;;;;;;5110713;27;20054;-68
2023/10/01 11:52:32;;;;;;;11.00;10.50;;;;;;;;;;5100997;27;20024;-70
2023/10/01 11:54:58;;;;;;;11.30;10.80;;;;;;;;;;5106995;27;20026;-66
2023/10/01 11:57:24;;;;;;;11.00;10.50;;;;;;;;;;5107305;28;20471;-65
2023/10/01 11:59:56;;;;;;;11.40;10.90;;;;;;;;;;5109315;27;20522;-64
2023/10/01 12:02:26;;;;;;;11.55;11.05;;;;;;;;;;5103042;28;20047;-64
2023/10/01 12:04:58;;;;;;;11.80;11.30;;;;;;;;;;5100265;28;20066;-65
2023/10/01 12:07:26;;;;;;;11.38;10.88;;;;;;;;;;5103806;27;20058;-66
2023/10/01 12:09:54;;;;;;;11.30;10.80;;;;;;;;;;5103940;27;20436;-66
2023/10/01 12:12:27;;;;;;;11.50;11.00;;;;;;;;;;5088583;28;20115;-65
2023/10/01 12:14:54;;;;;;;11.40;10.90;;;;;;;;;;5111856;27;20387;-65
2023/10/01 12:17:23;;;;;;;11.68;11.18;;;;;;;;;;5111990;27;20032;-66
2023/10/01 12:19:50;;;;;;;11.60;11.10;;;;;;;;;;5106840;27;20166;-66
2023/10/01 12:22:16;;;;;;;11.25;10.75;;;;;;;;;;5109295;28;20030;-64
2023/10/01 12:24:44;;;;;;;11.07;10.57;;;;;;;;;;5104834;27;20023;-65
2023/10/01 12:27:11;;;;;;;11.55;11.05;;;;;;;;;;5107404;27;20030;-65
2023/10/01 12:29:48;;;;;;;11.35;10.85;;;;;;;;;;5103174;28;20387;-65
2023/10/01 12:32:14;;;;;;;11.50;11.00;;;;;;;;;;5093326;28;20020;-67
2023/10/01 12:34:42;;;;;;;11.15;10.65;;;;;;;;;;5105769;28;20035;-67
2023/10/01 12:37:35;;;;;;;11.52;11.02;;;;;;;;;;5086626;28;20051;-65
2023/10/01 12:42:40;;;;;;;11.50;11.00;;;;;;;;;;5100679;28;20503;-65
2023/10/01 12:45:19;;;;;;;11.18;10.68;;;;;;;;;;5108477;27;20168;-66
2023/10/01 12:47:50;;;;;;;11.23;10.73;;;;;;;;;;5109533;27;20019;-65
2023/10/01 12:50:28;;;;;;;11.35;10.85;;;;;;;;;;5111347;27;20030;-66
2023/10/01 12:55:39;;;;;;;11.63;11.13;;;;;;;;;;5107535;27;20542;-65
2023/10/01 12:58:05;;;;;;;11.40;10.90;;;;;;;;;;5105725;27;20053;-66
2023/10/01 13:00:46;;;;;;;11.45;10.95;;;;;;;;;;5107685;27;20020;-65
2023/10/01 13:03:17;;;;;;;11.25;10.75;;;;;;;;;;5104256;27;20118;-65
2023/10/01 13:05:44;;;;;;;11.45;10.95;;;;;;;;;;5108142;27;20475;-66
2023/10/01 13:08:11;;;;;;;11.35;10.85;;;;;;;;;;5108645;27;20024;-64
2023/10/01 13:10:37;;;;;;;11.27;10.77;;;;;;;;;;5105472;27;20513;-66
2023/10/01 13:13:05;;;;;;;11.30;10.80;;;;;;;;;;5105973;28;20471;-65
2023/10/01 13:15:33;;;;;;;11.00;10.50;;;;;;;;;;5109650;27;20019;-65
2023/10/01 13:18:02;;;;;;;11.48;10.98;;;;;;;;;;5109217;28;20015;-65
2023/10/01 13:20:29;;;;;;;12.60;12.00;;;;;;;;;;5103622;28;20020;-64
2023/10/01 13:23:06;;;;;;;11.40;10.90;;;;;;;;;;5100591;28;20438;-74
2023/10/01 13:25:33;;;;;;;11.93;11.43;;;;;;;;;;5084631;28;20114;-70
2023/10/01 13:28:01;;;;;;;11.98;11.48;;;;;;;;;;5088250;28;20042;-70
2023/10/01 13:34:06;;;;;;;11.18;10.68;;;;;;;;;;5076138;28;20115;-71
2023/10/01 13:36:50;;;;;;;11.40;10.90;;;;;;;;;;5085079;28;20047;-65
2023/10/01 13:39:26;;;;;;;11.40;10.90;;;;;;;;;;5101111;28;20055;-72
2023/10/01 14:09:46;;;;;;;11.52;11.02;;;;;;;;;;5103533;28;20406;-66
2023/10/01 14:12:09;;;;;;;11.50;11.00;;;;;;;;;;5107737;28;20032;-67
2023/10/01 14:14:35;;;;;;;11.50;11.00;;;;;;;;;;5103970;28;20092;-62
2023/10/01 14:17:15;;;;;;;11.70;11.20;;;;;;;;;;5103497;28;20019;-66
2023/10/01 14:19:51;;;;;;;11.82;11.32;;;;;;;;;;5106978;28;20018;-61
2023/10/01 14:22:19;;;;;;;11.93;11.43;;;;;;;;;;5107831;28;20088;-63
2023/10/01 14:24:48;;;;;;;11.60;11.10;;;;;;;;;;5108094;28;20107;-64
2023/10/01 14:27:24;;;;;;;11.95;11.45;;;;;;;;;;5099793;28;20527;-67
2023/10/01 14:30:23;;;;;;;11.85;11.35;;;;;;;;;;5078775;28;20024;-68
2023/10/01 14:32:51;;;;;;;12.25;11.70;;;;;;;;;;5093098;28;20036;-67
2023/10/01 14:35:16;;;;;;;11.25;10.75;;;;;;;;;;5096157;28;20111;-67
2023/10/01 14:37:54;;;;;;;11.60;11.10;;;;;;;;;;5098903;28;20023;-67
2023/10/01 14:40:26;;;;;;;11.40;10.90;;;;;;;;;;5093316;28;20093;-67
2023/10/01 14:43:03;;;;;;;11.68;11.18;;;;;;;;;;5112251;28;20043;-67
2023/10/01 14:45:34;;;;;;;11.90;11.40;;;;;;;;;;5107466;28;20019;-67
2023/10/01 14:48:11;;;;;;;11.60;11.10;;;;;;;;;;5106907;28;20020;-67
2023/10/01 14:50:40;;;;;;;11.73;11.23;;;;;;;;;;5105293;28;20031;-67
2023/10/01 14:53:07;;;;;;;11.70;11.20;;;;;;;;;;5089327;28;20024;-67
2023/10/01 14:55:40;;;;;;;12.18;11.63;;;;;;;;;;5102343;28;20016;-67
2023/10/01 14:58:12;;;;;;;11.30;10.80;;;;;;;;;;5103275;27;20106;-66
2023/10/01 15:00:49;;;;;;;10.90;10.40;;;;;;;;;;5109600;28;20020;-67
2023/10/01 15:03:14;;;;;;;12.75;12.15;;;;;;;;;;5107888;27;20062;-68
2023/10/01 15:05:40;;;;;;;11.23;10.73;;;;;;;;;;5116404;27;20035;-66
2023/10/01 15:08:05;;;;;;;11.40;10.90;;;;;;;;;;5118717;27;20027;-67
2023/10/01 15:10:30;;;;;;;11.45;10.95;;;;;;;;;;5082999;28;20527;-67
2023/10/01 15:12:56;;;;;;;11.50;11.00;;;;;;;;;;5108260;28;20051;-67
2023/10/01 15:15:21;;;;;;;11.45;10.95;;;;;;;;;;5104902;27;20019;-67
2023/10/01 15:17:46;;;;;;;11.20;10.70;;;;;;;;;;5091820;28;20039;-68
2023/10/01 15:20:27;;;;;;;11.50;11.00;;;;;;;;;;5106720;27;20024;-68
2023/10/01 15:22:55;;;;;;;11.80;11.30;;;;;;;;;;5100391;27;20679;-64
2023/10/01 15:25:21;;;;;;;11.90;11.40;;;;;;;;;;5099573;27;20031;-62
2023/10/01 15:27:47;;;;;;;12.68;12.07;;;;;;;;;;5103437;27;20016;-61
2023/10/01 15:30:21;;;;;;;11.73;11.23;;;;;;;;;;5105312;27;20034;-62
2023/10/01 15:32:59;;;;;;;11.18;10.68;;;;;;;;;;5106977;27;20027;-61
2023/10/01 15:35:25;;;;;;;11.95;11.45;;;;;;;;;;5104213;27;20036;-62
2023/10/01 15:37:50;;;;;;;12.10;11.55;;;;;;;;;;5106182;27;20018;-60
2023/10/01 15:40:25;;;;;;;12.60;12.00;;;;;;;;;;5096990;27;20024;-60